Search for airport 
image banner adimage banner adimage banner ad
image banner ad

39CA - Sce Palm Springs District

Located in Cathedral City, United States

ICAO - 39CA, IATA -

Data provided by Airmate  

General information

Coordinates: N33°47'12" W116°27'52"
Elevation is 300 feet MSL.
Magnetic variation is 14° East
View others Airports in California

Operational data

Special qualification required
Current time UTC:
Current local time:
Weather at : KPSP - Palm Springs Intl ( 6 km )
METAR: KPSP 212153Z AUTO 19005KT 10SM CLR 39/01 A3002 RMK AO2 SLP160 T03940006
TAF: KPSP 211720Z 2118/2218 34005KT P6SM SKC FM211900 12007KT P6SM SKC FM220300 33006KT P6SM SKC
View NOTAMs / SUP AIP / TFR affecting this airport [VIEW]
Communications frequencies: [VIEW]

Runways:

Airport contact information

Address: Cathedral City United States

Satellite view of 39CA